Terminal Aerodrome Forecast
Issued by NWS Boston, MA

Home | Current Version | Previous Version | Text Only | Print | Product List | Glossary On
Versions: 1 2 3 4 5 6 7 8 9 10 11 12 13 14 15 16 17 18 19 20 21 22 23 24 25 26 27 28 29 30 31 32 33 34 35 36 37 38 39 40 41 42 43 44
000
FTUS41 KBOX 241743 RRA
TAFORH
TAF
KORH 241743Z 2418/2518 04009G16KT 1 1/2SM +RA BR OVC004
     FM250000 04008KT 3SM BR OVC008
     FM250500 03007KT 6SM BR VCSH OVC010
     FM250600 03008KT P6SM VCSH OVC010
     FM251100 03005KT P6SM OVC010
     FM251700 02006KT P6SM BKN035=

USA.gov is the U.S. government's official web portal to all federal, state and local government web resources and services.